sensor_id;sensor_type;location;lat;lon;timestamp;pressure;altitude;pressure_sealevel;temperature;humidity
10921;BME280;5513;50.580;8.818;2023-02-15T00:00:43;100619.25;;;1.62;100.00
10921;BME280;5513;50.580;8.818;2023-02-15T00:03:11;100619.25;;;1.62;100.00
10921;BME280;5513;50.580;8.818;2023-02-15T00:05:39;100613.91;;;1.82;100.00
10921;BME280;5513;50.580;8.818;2023-02-15T00:08:08;100609.66;;;1.66;100.00
10921;BME280;5513;50.580;8.818;2023-02-15T00:10:38;100616.59;;;1.70;100.00
10921;BME280;5513;50.580;8.818;2023-02-15T00:13:07;100607.06;;;1.64;100.00
10921;BME280;5513;50.580;8.818;2023-02-15T00:15:35;100610.59;;;1.50;100.00
10921;BME280;5513;50.580;8.818;2023-02-15T00:18:05;100600.13;;;1.59;100.00
10921;BME280;5513;50.580;8.818;2023-02-15T00:20:33;100601.91;;;1.49;100.00
10921;BME280;5513;50.580;8.818;2023-02-15T00:23:04;100605.31;;;1.62;100.00
10921;BME280;5513;50.580;8.818;2023-02-15T00:25:32;100612.34;;;1.44;100.00
10921;BME280;5513;50.580;8.818;2023-02-15T00:28:03;100594.94;;;1.48;100.00
10921;BME280;5513;50.580;8.818;2023-02-15T00:30:32;100594.13;;;1.29;100.00
10921;BME280;5513;50.580;8.818;2023-02-15T00:33:00;100600.28;;;1.05;100.00
10921;BME280;5513;50.580;8.818;2023-02-15T00:35:30;100596.78;;;1.15;100.00
10921;BME280;5513;50.580;8.818;2023-02-15T00:37:59;100588.94;;;1.28;100.00
10921;BME280;5513;50.580;8.818;2023-02-15T00:40:27;100579.34;;;1.25;100.00
10921;BME280;5513;50.580;8.818;2023-02-15T00:42:55;100583.66;;;1.41;100.00
10921;BME280;5513;50.580;8.818;2023-02-15T00:45:25;100574.16;;;1.27;100.00
10921;BME280;5513;50.580;8.818;2023-02-15T00:47:53;100573.25;;;1.31;100.00
10921;BME280;5513;50.580;8.818;2023-02-15T00:50:21;100579.41;;;1.02;100.00
10921;BME280;5513;50.580;8.818;2023-02-15T00:52:51;100584.56;;;1.24;100.00
10921;BME280;5513;50.580;8.818;2023-02-15T00:55:19;100581.13;;;1.19;100.00
10921;BME280;5513;50.580;8.818;2023-02-15T00:57:47;100582.81;;;1.32;100.00
10921;BME280;5513;50.580;8.818;2023-02-15T01:00:16;100579.34;;;1.30;100.00
10921;BME280;5513;50.580;8.818;2023-02-15T01:02:45;100582.00;;;1.19;100.00
10921;BME280;5513;50.580;8.818;2023-02-15T01:05:14;100577.66;;;1.12;100.00
10921;BME280;5513;50.580;8.818;2023-02-15T01:07:42;100582.88;;;1.18;100.00
10921;BME280;5513;50.580;8.818;2023-02-15T01:10:12;100588.91;;;1.23;100.00
10921;BME280;5513;50.580;8.818;2023-02-15T01:12:40;100581.06;;;1.31;100.00
10921;BME280;5513;50.580;8.818;2023-02-15T01:15:09;100580.25;;;1.20;100.00
10921;BME280;5513;50.580;8.818;2023-02-15T01:17:37;100581.09;;;1.25;100.00
10921;BME280;5513;50.580;8.818;2023-02-15T01:20:07;100575.84;;;1.34;100.00
10921;BME280;5513;50.580;8.818;2023-02-15T01:22:35;100576.75;;;1.28;100.00
10921;BME280;5513;50.580;8.818;2023-02-15T01:25:04;100575.84;;;1.38;100.00
10921;BME280;5513;50.580;8.818;2023-02-15T01:27:35;100574.13;;;1.36;100.00
10921;BME280;5513;50.580;8.818;2023-02-15T01:30:04;100573.25;;;1.31;100.00
10921;BME280;5513;50.580;8.818;2023-02-15T01:32:32;100574.94;;;1.41;100.00
10921;BME280;5513;50.580;8.818;2023-02-15T01:35:01;100576.72;;;1.31;100.00
10921;BME280;5513;50.580;8.818;2023-02-15T01:37:30;100576.69;;;1.45;100.00
10921;BME280;5513;50.580;8.818;2023-02-15T01:39:58;100576.69;;;1.40;100.00
10921;BME280;5513;50.580;8.818;2023-02-15T01:42:29;100576.75;;;1.22;100.00
10921;BME280;5513;50.580;8.818;2023-02-15T01:45:00;100573.28;;;1.19;100.00
10921;BME280;5513;50.580;8.818;2023-02-15T01:47:33;100582.03;;;1.01;100.00
10921;BME280;5513;50.580;8.818;2023-02-15T01:50:08;100574.09;;;1.34;100.00
10921;BME280;5513;50.580;8.818;2023-02-15T01:52:39;100573.28;;;1.19;100.00
10921;BME280;5513;50.580;8.818;2023-02-15T01:55:10;100574.97;;;1.38;100.00
10921;BME280;5513;50.580;8.818;2023-02-15T01:57:39;100565.38;;;1.46;100.00
10921;BME280;5513;50.580;8.818;2023-02-15T02:00:12;100573.19;;;1.49;100.00
10921;BME280;5513;50.580;8.818;2023-02-15T02:02:42;100570.78;;;0.82;100.00
10921;BME280;5513;50.580;8.818;2023-02-15T02:05:11;100568.09;;;1.11;100.00
10921;BME280;5513;50.580;8.818;2023-02-15T02:07:42;100558.56;;;0.93;100.00
10921;BME280;5513;50.580;8.818;2023-02-15T02:10:18;100562.91;;;0.96;100.00
10921;BME280;5513;50.580;8.818;2023-02-15T02:12:50;100555.91;;;1.19;100.00
10921;BME280;5513;50.580;8.818;2023-02-15T02:15:28;100550.66;;;1.21;100.00
10921;BME280;5513;50.580;8.818;2023-02-15T02:18:11;100545.47;;;1.16;100.00
10921;BME280;5513;50.580;8.818;2023-02-15T02:24:22;100549.88;;;0.97;100.00
10921;BME280;5513;50.580;8.818;2023-02-15T02:27:12;100545.56;;;0.87;100.00
10921;BME280;5513;50.580;8.818;2023-02-15T02:30:19;100550.69;;;1.05;100.00
10921;BME280;5513;50.580;8.818;2023-02-15T02:33:08;100542.03;;;1.02;100.00
10921;BME280;5513;50.580;8.818;2023-02-15T02:35:45;100543.78;;;1.00;100.00
10921;BME280;5513;50.580;8.818;2023-02-15T02:38:23;100537.75;;;0.75;100.00
10921;BME280;5513;50.580;8.818;2023-02-15T02:41:00;100538.59;;;0.97;100.00
10921;BME280;5513;50.580;8.818;2023-02-15T02:43:37;100533.38;;;0.91;100.00
10921;BME280;5513;50.580;8.818;2023-02-15T02:46:14;100523.72;;;1.17;100.00
10921;BME280;5513;50.580;8.818;2023-02-15T02:48:48;100530.66;;;1.27;100.00
10921;BME280;5513;50.580;8.818;2023-02-15T02:51:17;100512.38;;;1.23;100.00
10921;BME280;5513;50.580;8.818;2023-02-15T02:53:50;100509.78;;;1.23;100.00
10921;BME280;5513;50.580;8.818;2023-02-15T02:56:24;100507.19;;;1.20;100.00
10921;BME280;5513;50.580;8.818;2023-02-15T02:58:59;100508.13;;;0.99;100.00
10921;BME280;5513;50.580;8.818;2023-02-15T03:01:31;100508.88;;;1.24;100.00
10921;BME280;5513;50.580;8.818;2023-02-15T03:04:06;100500.25;;;1.17;100.00
10921;BME280;5513;50.580;8.818;2023-02-15T03:06:39;100501.09;;;1.18;100.00
10921;BME280;5513;50.580;8.818;2023-02-15T03:09:12;100500.25;;;1.12;100.00
10921;BME280;5513;50.580;8.818;2023-02-15T03:11:49;100495.94;;;1.08;100.00
10921;BME280;5513;50.580;8.818;2023-02-15T03:14:18;100499.44;;;1.01;100.00
10921;BME280;5513;50.580;8.818;2023-02-15T03:16:50;100490.63;;;1.25;100.00
10921;BME280;5513;50.580;8.818;2023-02-15T03:19:24;100499.38;;;1.17;100.00
10921;BME280;5513;50.580;8.818;2023-02-15T03:21:58;100488.91;;;1.23;100.00
10921;BME280;5513;50.580;8.818;2023-02-15T03:24:38;100495.00;;;1.20;100.00
10921;BME280;5513;50.580;8.818;2023-02-15T03:27:13;100494.13;;;1.20;100.00
10921;BME280;5513;50.580;8.818;2023-02-15T03:29:46;100488.91;;;1.23;100.00
10921;BME280;5513;50.580;8.818;2023-02-15T03:32:15;100484.56;;;1.26;100.00
10921;BME280;5513;50.580;8.818;2023-02-15T03:34:46;100484.56;;;1.15;100.00
10921;BME280;5513;50.580;8.818;2023-02-15T03:37:18;100489.03;;;0.89;100.00
10921;BME280;5513;50.580;8.818;2023-02-15T03:39:53;100482.91;;;1.07;100.00
10921;BME280;5513;50.580;8.818;2023-02-15T03:42:26;100487.19;;;1.15;100.00
10921;BME280;5513;50.580;8.818;2023-02-15T03:44:59;100495.84;;;1.27;100.00
10921;BME280;5513;50.580;8.818;2023-02-15T03:47:31;100492.44;;;1.09;100.00
10921;BME280;5513;50.580;8.818;2023-02-15T03:50:05;100491.56;;;1.06;100.00
10921;BME280;5513;50.580;8.818;2023-02-15T03:52:59;100482.88;;;1.04;100.00
10921;BME280;5513;50.580;8.818;2023-02-15T03:55:29;100485.50;;;1.01;100.00
10921;BME280;5513;50.580;8.818;2023-02-15T03:57:57;100485.47;;;1.16;100.00
10921;BME280;5513;50.580;8.818;2023-02-15T04:00:49;100481.13;;;1.04;100.00
10921;BME280;5513;50.580;8.818;2023-02-15T04:03:39;100474.19;;;1.05;100.00
10921;BME280;5513;50.580;8.818;2023-02-15T04:06:10;100467.25;;;1.07;100.00
10921;BME280;5513;50.580;8.818;2023-02-15T04:08:39;100475.03;;;1.11;100.00
10921;BME280;5513;50.580;8.818;2023-02-15T04:11:24;100476.00;;;0.89;100.00
10921;BME280;5513;50.580;8.818;2023-02-15T04:13:52;100476.81;;;1.03;100.00
10921;BME280;5513;50.580;8.818;2023-02-15T04:16:23;100468.91;;;1.15;100.00
10921;BME280;5513;50.580;8.818;2023-02-15T04:18:51;100474.13;;;1.15;100.00
10921;BME280;5513;50.580;8.818;2023-02-15T04:21:38;100467.25;;;0.99;100.00
10921;BME280;5513;50.580;8.818;2023-02-15T04:24:23;100469.03;;;0.86;100.00
10921;BME280;5513;50.580;8.818;2023-02-15T04:27:08;100473.44;;;0.74;100.00
10921;BME280;5513;50.580;8.818;2023-02-15T04:29:36;100460.34;;;0.89;100.00
10921;BME280;5513;50.580;8.818;2023-02-15T04:32:05;100464.72;;;0.79;100.00
10921;BME280;5513;50.580;8.818;2023-02-15T04:34:34;100463.03;;;0.71;100.00
10921;BME280;5513;50.580;8.818;2023-02-15T04:37:05;100466.44;;;0.88;100.00
10921;BME280;5513;50.580;8.818;2023-02-15T04:39:34;100462.94;;;0.97;100.00
10921;BME280;5513;50.580;8.818;2023-02-15T04:42:02;100457.69;;;1.03;100.00
10921;BME280;5513;50.580;8.818;2023-02-15T04:44:30;100459.41;;;1.02;100.00
10921;BME280;5513;50.580;8.818;2023-02-15T04:46:58;100460.28;;;1.07;100.00
10921;BME280;5513;50.580;8.818;2023-02-15T04:49:27;100448.97;;;1.07;100.00
10921;BME280;5513;50.580;8.818;2023-02-15T04:51:55;100457.69;;;1.00;100.00
10921;BME280;5513;50.580;8.818;2023-02-15T04:54:25;100453.38;;;0.86;100.00
10921;BME280;5513;50.580;8.818;2023-02-15T04:56:54;100443.84;;;0.84;100.00
10921;BME280;5513;50.580;8.818;2023-02-15T04:59:23;100440.41;;;0.79;100.00
10921;BME280;5513;50.580;8.818;2023-02-15T05:01:51;100438.59;;;0.93;100.00
10921;BME280;5513;50.580;8.818;2023-02-15T05:04:20;100441.19;;;0.95;100.00
10921;BME280;5513;50.580;8.818;2023-02-15T05:06:48;100437.72;;;0.91;100.00
10921;BME280;5513;50.580;8.818;2023-02-15T05:09:19;100449.06;;;0.89;100.00
10921;BME280;5513;50.580;8.818;2023-02-15T05:11:49;100446.44;;;0.89;100.00
10921;BME280;5513;50.580;8.818;2023-02-15T05:14:17;100450.75;;;0.96;100.00
10921;BME280;5513;50.580;8.818;2023-02-15T05:16:46;100445.56;;;0.86;100.00
10921;BME280;5513;50.580;8.818;2023-02-15T05:19:14;100449.91;;;0.89;100.00
10921;BME280;5513;50.580;8.818;2023-02-15T05:21:43;100447.31;;;0.83;100.00
10921;BME280;5513;50.580;8.818;2023-02-15T05:24:12;100443.84;;;0.82;100.00
10921;BME280;5513;50.580;8.818;2023-02-15T05:26:58;100444.72;;;0.84;100.00
10921;BME280;5513;50.580;8.818;2023-02-15T05:29:44;100437.84;;;0.68;100.00
10921;BME280;5513;50.580;8.818;2023-02-15T05:32:12;100435.19;;;0.71;100.00
10921;BME280;5513;50.580;8.818;2023-02-15T05:34:41;100439.47;;;0.97;100.00
10921;BME280;5513;50.580;8.818;2023-02-15T05:37:09;100441.22;;;0.89;100.00
10921;BME280;5513;50.580;8.818;2023-02-15T05:39:38;100438.63;;;0.89;100.00
10921;BME280;5513;50.580;8.818;2023-02-15T05:42:07;100435.28;;;0.50;100.00
10921;BME280;5513;50.580;8.818;2023-02-15T05:44:36;100436.94;;;0.72;100.00
10921;BME280;5513;50.580;8.818;2023-02-15T05:47:04;100438.72;;;0.55;100.00
10921;BME280;5513;50.580;8.818;2023-02-15T05:49:33;100432.66;;;0.51;100.00
10921;BME280;5513;50.580;8.818;2023-02-15T05:52:02;100437.81;;;0.67;100.00
10921;BME280;5513;50.580;8.818;2023-02-15T05:54:31;100432.66;;;0.59;100.00
10921;BME280;5513;50.580;8.818;2023-02-15T05:57:01;100443.06;;;0.62;100.00
10921;BME280;5513;50.580;8.818;2023-02-15T05:59:31;100442.13;;;0.77;100.00
10921;BME280;5513;50.580;8.818;2023-02-15T06:02:02;100438.63;;;0.82;100.00
10921;BME280;5513;50.580;8.818;2023-02-15T06:04:33;100453.44;;;0.74;100.00
10921;BME280;5513;50.580;8.818;2023-02-15T06:07:03;100454.31;;;0.67;100.00
10921;BME280;5513;50.580;8.818;2023-02-15T06:09:31;100450.81;;;0.82;100.00
10921;BME280;5513;50.580;8.818;2023-02-15T06:12:01;100450.81;;;0.79;100.00
10921;BME280;5513;50.580;8.818;2023-02-15T06:14:31;100452.53;;;0.88;100.00
10921;BME280;5513;50.580;8.818;2023-02-15T06:16:59;100460.38;;;0.83;100.00
10921;BME280;5513;50.580;8.818;2023-02-15T06:19:28;100447.28;;;0.94;100.00
10921;BME280;5513;50.580;8.818;2023-02-15T06:21:56;100455.09;;;0.94;100.00
10921;BME280;5513;50.580;8.818;2023-02-15T06:24:25;100461.25;;;0.80;100.00
10921;BME280;5513;50.580;8.818;2023-02-15T06:26:53;100455.13;;;0.86;100.00
10921;BME280;5513;50.580;8.818;2023-02-15T06:29:21;100457.75;;;0.81;100.00
10921;BME280;5513;50.580;8.818;2023-02-15T06:31:54;100464.72;;;0.76;100.00
10921;BME280;5513;50.580;8.818;2023-02-15T06:34:22;100464.66;;;0.96;100.00
10921;BME280;5513;50.580;8.818;2023-02-15T06:36:50;100459.47;;;0.90;100.00
10921;BME280;5513;50.580;8.818;2023-02-15T06:39:18;100471.59;;;1.00;100.00
10921;BME280;5513;50.580;8.818;2023-02-15T06:41:47;100468.13;;;1.00;100.00
10921;BME280;5513;50.580;8.818;2023-02-15T06:44:15;100477.69;;;1.01;100.00
10921;BME280;5513;50.580;8.818;2023-02-15T06:46:43;100483.78;;;1.01;100.00
10921;BME280;5513;50.580;8.818;2023-02-15T06:49:13;100481.19;;;1.00;100.00
10921;BME280;5513;50.580;8.818;2023-02-15T06:51:42;100482.09;;;0.88;100.00
10921;BME280;5513;50.580;8.818;2023-02-15T06:54:10;100480.34;;;0.92;100.00
10921;BME280;5513;50.580;8.818;2023-02-15T06:56:39;100478.59;;;0.89;100.00
10921;BME280;5513;50.580;8.818;2023-02-15T06:59:07;100478.66;;;0.78;100.00
10921;BME280;5513;50.580;8.818;2023-02-15T07:01:35;100482.94;;;0.90;100.00
10921;BME280;5513;50.580;8.818;2023-02-15T07:04:04;100480.31;;;0.99;100.00
10921;BME280;5513;50.580;8.818;2023-02-15T07:06:34;100484.75;;;0.70;100.00
10921;BME280;5513;50.580;8.818;2023-02-15T07:09:03;100489.94;;;0.73;100.00
10921;BME280;5513;50.580;8.818;2023-02-15T07:11:32;100481.25;;;0.74;100.00
10921;BME280;5513;50.580;8.818;2023-02-15T07:14:18;100484.69;;;0.83;100.00
10921;BME280;5513;50.580;8.818;2023-02-15T07:16:46;100487.25;;;0.96;100.00
10921;BME280;5513;50.580;8.818;2023-02-15T07:19:14;100482.06;;;0.86;100.00
10921;BME280;5513;50.580;8.818;2023-02-15T07:21:44;100488.97;;;1.03;100.00
10921;BME280;5513;50.580;8.818;2023-02-15T07:24:13;100483.75;;;1.10;100.00
10921;BME280;5513;50.580;8.818;2023-02-15T07:26:42;100483.72;;;1.17;100.00
10921;BME280;5513;50.580;8.818;2023-02-15T07:29:10;100482.84;;;1.14;100.00
10921;BME280;5513;50.580;8.818;2023-02-15T07:31:38;100486.38;;;1.00;100.00
10921;BME280;5513;50.580;8.818;2023-02-15T07:34:06;100491.63;;;0.98;100.00
10921;BME280;5513;50.580;8.818;2023-02-15T07:36:34;100489.00;;;1.01;100.00
10921;BME280;5513;50.580;8.818;2023-02-15T07:39:04;100484.59;;;1.14;100.00
10921;BME280;5513;50.580;8.818;2023-02-15T07:41:32;100485.47;;;1.05;100.00
10921;BME280;5513;50.580;8.818;2023-02-15T07:44:04;100481.09;;;1.15;100.00
10921;BME280;5513;50.580;8.818;2023-02-15T07:46:32;100489.84;;;1.09;100.00
10921;BME280;5513;50.580;8.818;2023-02-15T07:49:01;100479.34;;;1.15;100.00
10921;BME280;5513;50.580;8.818;2023-02-15T07:51:30;100480.28;;;1.04;100.00
10921;BME280;5513;50.580;8.818;2023-02-15T07:53:59;100469.84;;;1.08;100.00
10921;BME280;5513;50.580;8.818;2023-02-15T07:56:30;100463.75;;;1.03;100.00
10921;BME280;5513;50.580;8.818;2023-02-15T07:59:01;100467.22;;;1.11;100.00
10921;BME280;5513;50.580;8.818;2023-02-15T08:01:33;100463.66;;;1.25;100.00
10921;BME280;5513;50.580;8.818;2023-02-15T08:04:08;100466.28;;;1.23;100.00
10921;BME280;5513;50.580;8.818;2023-02-15T08:06:38;100464.56;;;1.21;100.00
10921;BME280;5513;50.580;8.818;2023-02-15T08:09:08;100462.75;;;1.32;100.00
10921;BME280;5513;50.580;8.818;2023-02-15T08:11:38;100468.06;;;1.18;100.00
10921;BME280;5513;50.580;8.818;2023-02-15T08:14:08;100461.13;;;1.09;100.00
10921;BME280;5513;50.580;8.818;2023-02-15T08:16:39;100460.28;;;1.07;100.00
10921;BME280;5513;50.580;8.818;2023-02-15T08:19:11;100459.38;;;1.11;100.00
10921;BME280;5513;50.580;8.818;2023-02-15T08:21:41;100459.41;;;1.05;100.00
10921;BME280;5513;50.580;8.818;2023-02-15T08:24:11;100461.13;;;1.09;100.00
10921;BME280;5513;50.580;8.818;2023-02-15T08:26:41;100453.22;;;1.23;100.00
10921;BME280;5513;50.580;8.818;2023-02-15T08:29:11;100460.16;;;1.32;100.00
10921;BME280;5513;50.580;8.818;2023-02-15T08:31:41;100461.00;;;1.37;100.00
10921;BME280;5513;50.580;8.818;2023-02-15T08:34:13;100467.03;;;1.43;100.00
10921;BME280;5513;50.580;8.818;2023-02-15T08:36:42;100459.31;;;1.28;100.00
10921;BME280;5513;50.580;8.818;2023-02-15T08:39:12;100464.59;;;1.18;100.00
10921;BME280;5513;50.580;8.818;2023-02-15T08:41:44;100456.63;;;1.34;100.00
10921;BME280;5513;50.580;8.818;2023-02-15T08:44:16;100456.66;;;1.36;100.00
10921;BME280;5513;50.580;8.818;2023-02-15T08:46:47;100451.34;;;1.50;100.00
10921;BME280;5513;50.580;8.818;2023-02-15T08:49:17;100453.19;;;1.31;100.00
10921;BME280;5513;50.580;8.818;2023-02-15T08:51:46;100446.25;;;1.24;100.00
10921;BME280;5513;50.580;8.818;2023-02-15T08:54:16;100444.44;;;1.35;100.00
10921;BME280;5513;50.580;8.818;2023-02-15T08:56:47;100442.72;;;1.32;100.00
10921;BME280;5513;50.580;8.818;2023-02-15T08:59:17;100439.25;;;1.32;100.00
10921;BME280;5513;50.580;8.818;2023-02-15T09:01:46;100442.72;;;1.37;100.00
10921;BME280;5513;50.580;8.818;2023-02-15T09:04:15;100437.56;;;1.25;100.00
10921;BME280;5513;50.580;8.818;2023-02-15T09:06:45;100418.44;;;1.26;100.00
10921;BME280;5513;50.580;8.818;2023-02-15T09:09:15;100424.47;;;1.31;100.00
10921;BME280;5513;50.580;8.818;2023-02-15T09:11:47;100427.06;;;1.34;100.00
10921;BME280;5513;50.580;8.818;2023-02-15T09:14:21;100428.81;;;1.32;100.00
10921;BME280;5513;50.580;8.818;2023-02-15T09:16:52;100434.00;;;1.41;100.00
10921;BME280;5513;50.580;8.818;2023-02-15T09:19:22;100434.91;;;1.35;100.00
10921;BME280;5513;50.580;8.818;2023-02-15T09:21:50;100435.69;;;1.43;100.00
10921;BME280;5513;50.580;8.818;2023-02-15T09:24:20;100439.19;;;1.42;100.00
10921;BME280;5513;50.580;8.818;2023-02-15T09:26:50;100430.41;;;1.53;100.00
10921;BME280;5513;50.580;8.818;2023-02-15T09:29:19;100432.16;;;1.52;100.00
10921;BME280;5513;50.580;8.818;2023-02-15T09:31:50;100420.06;;;1.40;100.00
10921;BME280;5513;50.580;8.818;2023-02-15T09:34:21;100422.56;;;1.57;100.00
10921;BME280;5513;50.580;8.818;2023-02-15T09:36:51;100420.91;;;1.42;100.00
10921;BME280;5513;50.580;8.818;2023-02-15T09:39:22;100428.75;;;1.47;100.00
10921;BME280;5513;50.580;8.818;2023-02-15T09:42:09;100431.34;;;1.49;100.00
10921;BME280;5513;50.580;8.818;2023-02-15T09:44:52;100431.25;;;1.61;100.00
10921;BME280;5513;50.580;8.818;2023-02-15T09:47:36;100432.16;;;1.57;100.00
10921;BME280;5513;50.580;8.818;2023-02-15T09:50:12;100429.47;;;1.67;100.00
10921;BME280;5513;50.580;8.818;2023-02-15T09:52:56;100431.16;;;1.71;100.00
10921;BME280;5513;50.580;8.818;2023-02-15T09:55:47;100422.34;;;1.86;100.00
10921;BME280;5513;50.580;8.818;2023-02-15T09:58:22;100415.50;;;1.70;100.00
10921;BME280;5513;50.580;8.818;2023-02-15T10:00:59;100422.38;;;1.82;100.00
10921;BME280;5513;50.580;8.818;2023-02-15T10:03:44;100419.75;;;1.86;100.00
10921;BME280;5513;50.580;8.818;2023-02-15T10:06:28;100420.69;;;1.76;100.00
10921;BME280;5513;50.580;8.818;2023-02-15T10:09:06;100426.69;;;1.89;100.00
10921;BME280;5513;50.580;8.818;2023-02-15T10:11:53;100421.41;;;1.95;100.00
10921;BME280;5513;50.580;8.818;2023-02-15T10:17:40;100431.03;;;1.90;100.00
10921;BME280;5513;50.580;8.818;2023-02-15T10:20:21;100417.06;;;1.91;100.00
10921;BME280;5513;50.580;8.818;2023-02-15T10:25:47;100433.59;;;1.94;100.00
10921;BME280;5513;50.580;8.818;2023-02-15T10:28:23;100424.72;;;2.14;100.00
10921;BME280;5513;50.580;8.818;2023-02-15T10:30:59;100423.91;;;2.07;100.00
10921;BME280;5513;50.580;8.818;2023-02-15T10:33:38;100429.06;;;2.16;100.00
10921;BME280;5513;50.580;8.818;2023-02-15T10:36:16;100428.88;;;2.32;100.00
10921;BME280;5513;50.580;8.818;2023-02-15T10:38:54;100435.13;;;2.18;100.00
10921;BME280;5513;50.580;8.818;2023-02-15T10:41:33;100435.16;;;2.12;100.00
10921;BME280;5513;50.580;8.818;2023-02-15T10:44:17;100431.75;;;2.07;100.00
10921;BME280;5513;50.580;8.818;2023-02-15T10:47:04;100428.09;;;2.25;100.00
10921;BME280;5513;50.580;8.818;2023-02-15T10:49:48;100420.31;;;2.17;100.00
10921;BME280;5513;50.580;8.818;2023-02-15T10:52:29;100421.09;;;2.28;100.00
10921;BME280;5513;50.580;8.818;2023-02-15T10:55:08;100416.72;;;2.32;100.00
10921;BME280;5513;50.580;8.818;2023-02-15T10:57:51;100424.50;;;2.37;100.00
10921;BME280;5513;50.580;8.818;2023-02-15T11:00:31;100425.28;;;2.45;100.00
10921;BME280;5513;50.580;8.818;2023-02-15T11:03:27;100423.47;;;2.50;100.00
10921;BME280;5513;50.580;8.818;2023-02-15T11:06:08;100427.09;;;2.38;100.00
10921;BME280;5513;50.580;8.818;2023-02-15T11:08:43;100428.03;;;2.33;100.00
10921;BME280;5513;50.580;8.818;2023-02-15T11:11:19;100417.50;;;2.39;100.00
10921;BME280;5513;50.580;8.818;2023-02-15T11:13:53;100423.56;;;2.42;100.00
10921;BME280;5513;50.580;8.818;2023-02-15T11:16:25;100416.63;;;2.38;100.00
10921;BME280;5513;50.580;8.818;2023-02-15T11:18:59;100424.53;;;2.30;100.00
10921;BME280;5513;50.580;8.818;2023-02-15T11:21:33;100418.13;;;2.59;100.00
10921;BME280;5513;50.580;8.818;2023-02-15T11:24:09;100413.91;;;2.49;100.00
10921;BME280;5513;50.580;8.818;2023-02-15T11:26:42;100408.72;;;2.44;100.00
10921;BME280;5513;50.580;8.818;2023-02-15T11:29:15;100408.63;;;2.50;100.00
10921;BME280;5513;50.580;8.818;2023-02-15T11:31:50;100413.84;;;2.55;100.00
10921;BME280;5513;50.580;8.818;2023-02-15T11:34:25;100411.47;;;2.34;100.00
10921;BME280;5513;50.580;8.818;2023-02-15T11:36:59;100407.91;;;2.39;100.00
10921;BME280;5513;50.580;8.818;2023-02-15T11:39:28;100411.16;;;2.59;100.00
10921;BME280;5513;50.580;8.818;2023-02-15T11:42:02;100405.16;;;2.53;100.00
10921;BME280;5513;50.580;8.818;2023-02-15T11:44:34;100401.56;;;2.60;100.00
10921;BME280;5513;50.580;8.818;2023-02-15T11:47:08;100401.59;;;2.57;100.00
10921;BME280;5513;50.580;8.818;2023-02-15T11:49:38;100391.56;;;2.17;100.00
10921;BME280;5513;50.580;8.818;2023-02-15T11:52:12;100389.50;;;2.48;100.00
10921;BME280;5513;50.580;8.818;2023-02-15T11:54:43;100388.78;;;2.36;100.00
10921;BME280;5513;50.580;8.818;2023-02-15T11:57:14;100394.06;;;2.29;100.00
10921;BME280;5513;50.580;8.818;2023-02-15T11:59:53;100389.59;;;2.39;100.00
10921;BME280;5513;50.580;8.818;2023-02-15T12:02:23;100386.16;;;2.36;100.00
10921;BME280;5513;50.580;8.818;2023-02-15T12:04:56;100392.22;;;2.38;100.00
10921;BME280;5513;50.580;8.818;2023-02-15T12:07:31;100378.47;;;2.20;100.00
10921;BME280;5513;50.580;8.818;2023-02-15T12:10:04;100379.28;;;2.27;100.00
10921;BME280;5513;50.580;8.818;2023-02-15T12:12:38;100369.84;;;2.14;100.00
10921;BME280;5513;50.580;8.818;2023-02-15T12:15:08;100376.91;;;2.01;100.00
10921;BME280;5513;50.580;8.818;2023-02-15T12:17:39;100368.91;;;2.19;100.00
10921;BME280;5513;50.580;8.818;2023-02-15T12:20:21;100374.94;;;2.26;100.00
10921;BME280;5513;50.580;8.818;2023-02-15T12:22:59;100367.13;;;2.21;100.00
10921;BME280;5513;50.580;8.818;2023-02-15T12:25:33;100375.91;;;2.16;100.00
10921;BME280;5513;50.580;8.818;2023-02-15T12:28:05;100361.94;;;2.18;100.00
10921;BME280;5513;50.580;8.818;2023-02-15T12:30:46;100359.50;;;2.01;100.00
10921;BME280;5513;50.580;8.818;2023-02-15T12:33:18;100358.44;;;2.22;100.00
10921;BME280;5513;50.580;8.818;2023-02-15T12:35:55;100361.00;;;2.25;100.00
10921;BME280;5513;50.580;8.818;2023-02-15T12:38:29;100355.03;;;2.14;100.00
10921;BME280;5513;50.580;8.818;2023-02-15T12:40:59;100347.16;;;2.16;100.00
10921;BME280;5513;50.580;8.818;2023-02-15T12:43:32;100347.25;;;2.08;100.00
10921;BME280;5513;50.580;8.818;2023-02-15T12:46:20;100335.81;;;2.18;100.00
10921;BME280;5513;50.580;8.818;2023-02-15T12:49:05;100348.84;;;2.23;100.00
10921;BME280;5513;50.580;8.818;2023-02-15T12:51:49;100334.88;;;2.25;100.00
10921;BME280;5513;50.580;8.818;2023-02-15T12:54:38;100329.47;;;2.39;100.00
10921;BME280;5513;50.580;8.818;2023-02-15T12:57:20;100344.50;;;2.20;100.00
10921;BME280;5513;50.580;8.818;2023-02-15T12:59:51;100342.53;;;2.39;100.00
10921;BME280;5513;50.580;8.818;2023-02-15T13:02:28;100335.53;;;2.41;100.00
10921;BME280;5513;50.580;8.818;2023-02-15T13:05:05;100334.72;;;2.38;100.00
10921;BME280;5513;50.580;8.818;2023-02-15T13:07:36;100325.22;;;2.29;100.00
10921;BME280;5513;50.580;8.818;2023-02-15T13:10:20;100323.38;;;2.39;100.00
10921;BME280;5513;50.580;8.818;2023-02-15T13:12:49;100314.75;;;2.34;100.00
10921;BME280;5513;50.580;8.818;2023-02-15T13:15:28;100309.47;;;2.37;100.00
10921;BME280;5513;50.580;8.818;2023-02-15T13:18:04;100308.38;;;2.54;100.00
10921;BME280;5513;50.580;8.818;2023-02-15T13:20:35;100298.81;;;2.52;100.00
10921;BME280;5513;50.580;8.818;2023-02-15T13:23:22;100293.53;;;2.56;100.00
10921;BME280;5513;50.580;8.818;2023-02-15T13:25:57;100293.59;;;2.50;100.00
10921;BME280;5513;50.580;8.818;2023-02-15T13:28:34;100291.16;;;2.37;100.00
10921;BME280;5513;50.580;8.818;2023-02-15T13:31:12;100291.28;;;2.27;100.00
10921;BME280;5513;50.580;8.818;2023-02-15T13:33:44;100286.88;;;2.33;100.00
10921;BME280;5513;50.580;8.818;2023-02-15T13:36:21;100284.34;;;2.25;100.00
10921;BME280;5513;50.580;8.818;2023-02-15T13:39:03;100284.34;;;2.25;100.00